sensor_id;sensor_type;location;lat;lon;timestamp;temperature;humidity
9448;DHT22;4762;48.128;11.376;2024-03-08T00:01:40;0.00;86.60
9448;DHT22;4762;48.128;11.376;2024-03-08T00:03:42;-3276.70;86.30
9448;DHT22;4762;48.128;11.376;2024-03-08T00:05:44;-3276.70;86.50
9448;DHT22;4762;48.128;11.376;2024-03-08T00:07:47;0.00;86.40
9448;DHT22;4762;48.128;11.376;2024-03-08T00:09:49;-3276.60;86.10
9448;DHT22;4762;48.128;11.376;2024-03-08T00:11:51;0.00;86.30
9448;DHT22;4762;48.128;11.376;2024-03-08T00:13:53;0.00;85.80
9448;DHT22;4762;48.128;11.376;2024-03-08T00:15:56;-3276.70;85.50
9448;DHT22;4762;48.128;11.376;2024-03-08T00:17:59;-3276.60;85.70
9448;DHT22;4762;48.128;11.376;2024-03-08T00:20:01;-3276.50;86.10
9448;DHT22;4762;48.128;11.376;2024-03-08T00:22:03;-3276.50;86.20
9448;DHT22;4762;48.128;11.376;2024-03-08T00:24:07;-3276.70;86.00
9448;DHT22;4762;48.128;11.376;2024-03-08T00:26:09;-3276.40;86.00
9448;DHT22;4762;48.128;11.376;2024-03-08T00:28:12;-3276.50;86.10
9448;DHT22;4762;48.128;11.376;2024-03-08T00:30:14;-3276.60;86.10
9448;DHT22;4762;48.128;11.376;2024-03-08T00:32:16;-3276.50;86.10
9448;DHT22;4762;48.128;11.376;2024-03-08T00:34:18;-3276.40;86.30
9448;DHT22;4762;48.128;11.376;2024-03-08T00:36:21;-3276.50;86.00
9448;DHT22;4762;48.128;11.376;2024-03-08T00:38:23;-3276.40;86.00
9448;DHT22;4762;48.128;11.376;2024-03-08T00:40:25;-3276.30;86.20
9448;DHT22;4762;48.128;11.376;2024-03-08T00:42:28;-3276.40;86.40
9448;DHT22;4762;48.128;11.376;2024-03-08T00:44:30;-3276.40;86.70
9448;DHT22;4762;48.128;11.376;2024-03-08T00:46:32;-3276.50;86.00
9448;DHT22;4762;48.128;11.376;2024-03-08T00:48:34;-3276.30;86.20
9448;DHT22;4762;48.128;11.376;2024-03-08T00:50:36;-3276.30;86.70
9448;DHT22;4762;48.128;11.376;2024-03-08T00:52:39;-3276.40;86.60
9448;DHT22;4762;48.128;11.376;2024-03-08T00:54:41;-3276.30;86.60
9448;DHT22;4762;48.128;11.376;2024-03-08T00:56:43;-3276.30;86.50
9448;DHT22;4762;48.128;11.376;2024-03-08T00:58:46;-3276.20;86.60
9448;DHT22;4762;48.128;11.376;2024-03-08T01:00:48;-3276.30;86.50
9448;DHT22;4762;48.128;11.376;2024-03-08T01:02:50;-3276.40;86.40
9448;DHT22;4762;48.128;11.376;2024-03-08T01:04:53;-3276.30;85.90
9448;DHT22;4762;48.128;11.376;2024-03-08T01:06:56;-3276.20;86.20
9448;DHT22;4762;48.128;11.376;2024-03-08T01:08:59;-3276.50;86.50
9448;DHT22;4762;48.128;11.376;2024-03-08T01:11:01;-3276.40;86.40
9448;DHT22;4762;48.128;11.376;2024-03-08T01:13:04;-3276.30;86.40
9448;DHT22;4762;48.128;11.376;2024-03-08T01:15:06;-3276.20;86.30
9448;DHT22;4762;48.128;11.376;2024-03-08T01:17:08;-3276.20;86.20
9448;DHT22;4762;48.128;11.376;2024-03-08T01:19:11;-3276.10;86.40
9448;DHT22;4762;48.128;11.376;2024-03-08T01:21:13;-3276.10;86.70
9448;DHT22;4762;48.128;11.376;2024-03-08T01:23:15;-3276.10;86.60
9448;DHT22;4762;48.128;11.376;2024-03-08T01:25:17;-3276.10;86.50
9448;DHT22;4762;48.128;11.376;2024-03-08T01:27:19;-3276.00;86.50
9448;DHT22;4762;48.128;11.376;2024-03-08T01:29:22;-3276.00;86.40
9448;DHT22;4762;48.128;11.376;2024-03-08T01:31:24;-3276.00;86.90
9448;DHT22;4762;48.128;11.376;2024-03-08T01:33:26;-3276.20;87.20
9448;DHT22;4762;48.128;11.376;2024-03-08T01:35:29;-3276.20;86.80
9448;DHT22;4762;48.128;11.376;2024-03-08T01:37:31;-3276.20;86.50
9448;DHT22;4762;48.128;11.376;2024-03-08T01:39:33;-3276.20;86.40
9448;DHT22;4762;48.128;11.376;2024-03-08T01:41:35;-3276.10;86.70
9448;DHT22;4762;48.128;11.376;2024-03-08T01:43:38;-3276.20;86.70
9448;DHT22;4762;48.128;11.376;2024-03-08T01:45:40;-3276.10;86.50
9448;DHT22;4762;48.128;11.376;2024-03-08T01:47:42;-3276.40;86.30
9448;DHT22;4762;48.128;11.376;2024-03-08T01:49:44;-3276.20;86.30
9448;DHT22;4762;48.128;11.376;2024-03-08T01:51:47;-3276.20;86.50
9448;DHT22;4762;48.128;11.376;2024-03-08T01:53:49;-3276.00;86.60
9448;DHT22;4762;48.128;11.376;2024-03-08T01:55:52;-3276.00;86.60
9448;DHT22;4762;48.128;11.376;2024-03-08T01:57:53;-3276.10;87.40
9448;DHT22;4762;48.128;11.376;2024-03-08T01:59:56;-3276.10;86.80
9448;DHT22;4762;48.128;11.376;2024-03-08T02:01:59;-3275.90;87.00
9448;DHT22;4762;48.128;11.376;2024-03-08T02:04:00;-3276.10;87.20
9448;DHT22;4762;48.128;11.376;2024-03-08T02:06:02;-3275.90;86.90
9448;DHT22;4762;48.128;11.376;2024-03-08T02:08:05;-3276.10;87.10
9448;DHT22;4762;48.128;11.376;2024-03-08T02:10:08;-3275.80;86.90
9448;DHT22;4762;48.128;11.376;2024-03-08T02:12:10;-3276.10;87.40
9448;DHT22;4762;48.128;11.376;2024-03-08T02:14:13;-3275.80;87.20
9448;DHT22;4762;48.128;11.376;2024-03-08T02:16:22;-3275.80;87.50
9448;DHT22;4762;48.128;11.376;2024-03-08T02:18:24;-3275.70;87.30
9448;DHT22;4762;48.128;11.376;2024-03-08T02:20:28;-3275.60;87.70
9448;DHT22;4762;48.128;11.376;2024-03-08T02:22:28;-3275.60;87.70
9448;DHT22;4762;48.128;11.376;2024-03-08T02:24:32;-3275.80;87.90
9448;DHT22;4762;48.128;11.376;2024-03-08T02:26:35;-3275.70;87.60
9448;DHT22;4762;48.128;11.376;2024-03-08T02:28:37;-3275.60;87.70
9448;DHT22;4762;48.128;11.376;2024-03-08T02:30:39;-3275.60;88.30
9448;DHT22;4762;48.128;11.376;2024-03-08T02:32:42;-3275.70;87.90
9448;DHT22;4762;48.128;11.376;2024-03-08T02:34:44;-3275.80;87.60
9448;DHT22;4762;48.128;11.376;2024-03-08T02:36:46;-3275.70;87.80
9448;DHT22;4762;48.128;11.376;2024-03-08T02:38:48;-3275.80;88.10
9448;DHT22;4762;48.128;11.376;2024-03-08T02:40:51;-3275.70;88.00
9448;DHT22;4762;48.128;11.376;2024-03-08T02:42:53;-3275.80;87.80
9448;DHT22;4762;48.128;11.376;2024-03-08T02:44:55;-3275.50;87.70
9448;DHT22;4762;48.128;11.376;2024-03-08T02:46:57;-3275.30;87.60
9448;DHT22;4762;48.128;11.376;2024-03-08T02:49:00;-3275.40;88.20
9448;DHT22;4762;48.128;11.376;2024-03-08T02:51:02;-3275.70;88.70
9448;DHT22;4762;48.128;11.376;2024-03-08T02:53:04;-3275.70;88.10
9448;DHT22;4762;48.128;11.376;2024-03-08T02:55:08;-3275.60;88.20
9448;DHT22;4762;48.128;11.376;2024-03-08T02:57:10;-3275.60;88.00
9448;DHT22;4762;48.128;11.376;2024-03-08T02:59:12;-3275.50;88.00
9448;DHT22;4762;48.128;11.376;2024-03-08T03:01:15;-3275.60;87.80
9448;DHT22;4762;48.128;11.376;2024-03-08T03:03:17;-3275.50;88.20
9448;DHT22;4762;48.128;11.376;2024-03-08T03:05:20;-3275.70;88.30
9448;DHT22;4762;48.128;11.376;2024-03-08T03:07:22;-3275.70;88.10
9448;DHT22;4762;48.128;11.376;2024-03-08T03:09:24;-3275.70;88.10
9448;DHT22;4762;48.128;11.376;2024-03-08T03:11:26;-3275.70;88.40
9448;DHT22;4762;48.128;11.376;2024-03-08T03:13:29;-3275.70;88.00
9448;DHT22;4762;48.128;11.376;2024-03-08T03:15:31;-3275.80;87.90
9448;DHT22;4762;48.128;11.376;2024-03-08T03:17:33;-3275.70;88.00
9448;DHT22;4762;48.128;11.376;2024-03-08T03:19:35;-3275.70;87.90
9448;DHT22;4762;48.128;11.376;2024-03-08T03:21:38;-3275.70;88.00
9448;DHT22;4762;48.128;11.376;2024-03-08T03:23:40;-3275.50;87.90
9448;DHT22;4762;48.128;11.376;2024-03-08T03:25:42;-3275.70;88.50
9448;DHT22;4762;48.128;11.376;2024-03-08T03:27:44;-3275.60;88.20
9448;DHT22;4762;48.128;11.376;2024-03-08T03:29:47;-3275.70;88.20
9448;DHT22;4762;48.128;11.376;2024-03-08T03:31:49;-3275.60;88.20
9448;DHT22;4762;48.128;11.376;2024-03-08T03:33:51;-3275.70;88.10
9448;DHT22;4762;48.128;11.376;2024-03-08T03:35:54;-3275.80;88.50
9448;DHT22;4762;48.128;11.376;2024-03-08T03:37:56;-3275.70;88.20
9448;DHT22;4762;48.128;11.376;2024-03-08T03:40:03;-3275.60;88.20
9448;DHT22;4762;48.128;11.376;2024-03-08T03:42:05;-3275.60;88.20
9448;DHT22;4762;48.128;11.376;2024-03-08T03:44:08;-3275.60;88.60
9448;DHT22;4762;48.128;11.376;2024-03-08T03:46:10;-3275.60;88.60
9448;DHT22;4762;48.128;11.376;2024-03-08T03:48:13;-3275.60;88.60
9448;DHT22;4762;48.128;11.376;2024-03-08T03:50:15;-3275.70;88.40
9448;DHT22;4762;48.128;11.376;2024-03-08T03:52:18;-3275.60;88.20
9448;DHT22;4762;48.128;11.376;2024-03-08T03:54:20;-3275.70;88.70
9448;DHT22;4762;48.128;11.376;2024-03-08T03:56:24;-3275.50;88.50
9448;DHT22;4762;48.128;11.376;2024-03-08T03:58:24;-3275.70;88.40
9448;DHT22;4762;48.128;11.376;2024-03-08T04:00:27;-3275.80;88.70
9448;DHT22;4762;48.128;11.376;2024-03-08T04:02:29;-3275.70;88.50
9448;DHT22;4762;48.128;11.376;2024-03-08T04:04:31;-3275.70;88.40
9448;DHT22;4762;48.128;11.376;2024-03-08T04:06:33;-3275.40;88.40
9448;DHT22;4762;48.128;11.376;2024-03-08T04:08:36;-3275.40;88.60
9448;DHT22;4762;48.128;11.376;2024-03-08T04:10:38;-3275.50;88.60
9448;DHT22;4762;48.128;11.376;2024-03-08T04:12:40;-3275.50;88.80
9448;DHT22;4762;48.128;11.376;2024-03-08T04:14:42;-3275.40;89.00
9448;DHT22;4762;48.128;11.376;2024-03-08T04:16:45;-3275.50;88.80
9448;DHT22;4762;48.128;11.376;2024-03-08T04:18:47;-3275.40;88.90
9448;DHT22;4762;48.128;11.376;2024-03-08T04:20:49;-3275.50;89.10
9448;DHT22;4762;48.128;11.376;2024-03-08T04:25:28;-3275.50;88.90
9448;DHT22;4762;48.128;11.376;2024-03-08T04:27:30;-3275.50;89.00
9448;DHT22;4762;48.128;11.376;2024-03-08T04:29:32;-3275.50;88.70
9448;DHT22;4762;48.128;11.376;2024-03-08T04:31:34;-3275.50;88.90
9448;DHT22;4762;48.128;11.376;2024-03-08T04:33:37;-3275.40;88.60
9448;DHT22;4762;48.128;11.376;2024-03-08T04:35:39;-3275.40;88.80
9448;DHT22;4762;48.128;11.376;2024-03-08T04:37:41;-3275.60;88.90
9448;DHT22;4762;48.128;11.376;2024-03-08T04:39:44;-3275.60;88.90
9448;DHT22;4762;48.128;11.376;2024-03-08T04:41:46;-3275.50;88.90
9448;DHT22;4762;48.128;11.376;2024-03-08T04:43:49;-3275.50;89.10
9448;DHT22;4762;48.128;11.376;2024-03-08T04:45:51;-3275.70;88.90
9448;DHT22;4762;48.128;11.376;2024-03-08T04:47:55;-3275.70;88.90
9448;DHT22;4762;48.128;11.376;2024-03-08T04:49:57;-3275.80;88.70
9448;DHT22;4762;48.128;11.376;2024-03-08T04:52:01;-3275.80;88.70
9448;DHT22;4762;48.128;11.376;2024-03-08T04:54:02;-3276.00;88.70
9448;DHT22;4762;48.128;11.376;2024-03-08T04:56:06;-3275.90;88.50
9448;DHT22;4762;48.128;11.376;2024-03-08T04:58:08;-3275.80;88.50
9448;DHT22;4762;48.128;11.376;2024-03-08T05:00:12;-3275.80;88.20
9448;DHT22;4762;48.128;11.376;2024-03-08T05:02:14;-3275.90;88.30
9448;DHT22;4762;48.128;11.376;2024-03-08T05:04:16;-3275.90;88.50
9448;DHT22;4762;48.128;11.376;2024-03-08T05:06:19;-3275.90;88.20
9448;DHT22;4762;48.128;11.376;2024-03-08T05:08:21;-3275.90;88.30
9448;DHT22;4762;48.128;11.376;2024-03-08T05:10:23;-3275.80;88.30
9448;DHT22;4762;48.128;11.376;2024-03-08T05:12:25;-3276.10;88.40
9448;DHT22;4762;48.128;11.376;2024-03-08T05:14:28;-3275.90;88.40
9448;DHT22;4762;48.128;11.376;2024-03-08T05:16:30;-3276.00;88.30
9448;DHT22;4762;48.128;11.376;2024-03-08T05:18:32;-3276.00;88.20
9448;DHT22;4762;48.128;11.376;2024-03-08T05:20:34;-3276.00;88.20
9448;DHT22;4762;48.128;11.376;2024-03-08T05:22:36;-3276.00;88.10
9448;DHT22;4762;48.128;11.376;2024-03-08T05:24:39;-3275.90;88.20
9448;DHT22;4762;48.128;11.376;2024-03-08T05:26:41;-3276.10;88.10
9448;DHT22;4762;48.128;11.376;2024-03-08T05:28:43;-3276.20;88.10
9448;DHT22;4762;48.128;11.376;2024-03-08T05:30:45;-3276.10;88.00
9448;DHT22;4762;48.128;11.376;2024-03-08T05:32:48;-3275.90;88.00
9448;DHT22;4762;48.128;11.376;2024-03-08T05:34:50;-3276.20;87.90
9448;DHT22;4762;48.128;11.376;2024-03-08T05:36:52;-3276.10;87.80
9448;DHT22;4762;48.128;11.376;2024-03-08T05:38:54;-3276.10;87.90
9448;DHT22;4762;48.128;11.376;2024-03-08T05:40:57;-3276.10;87.90
9448;DHT22;4762;48.128;11.376;2024-03-08T05:42:59;-3276.00;88.00
9448;DHT22;4762;48.128;11.376;2024-03-08T05:45:01;-3276.00;87.80
9448;DHT22;4762;48.128;11.376;2024-03-08T05:47:03;-3275.90;87.80
9448;DHT22;4762;48.128;11.376;2024-03-08T05:49:06;-3276.10;87.90
9448;DHT22;4762;48.128;11.376;2024-03-08T05:51:08;-3276.10;87.70
9448;DHT22;4762;48.128;11.376;2024-03-08T05:53:10;-3276.10;87.70
9448;DHT22;4762;48.128;11.376;2024-03-08T05:55:12;-3276.00;87.80
9448;DHT22;4762;48.128;11.376;2024-03-08T05:57:14;-3276.00;87.80
9448;DHT22;4762;48.128;11.376;2024-03-08T05:59:17;-3276.00;87.80
9448;DHT22;4762;48.128;11.376;2024-03-08T06:01:19;-3276.00;87.80
9448;DHT22;4762;48.128;11.376;2024-03-08T06:03:21;-3276.20;87.80
9448;DHT22;4762;48.128;11.376;2024-03-08T06:05:23;-3276.00;87.70
9448;DHT22;4762;48.128;11.376;2024-03-08T06:07:26;-3276.00;87.80
9448;DHT22;4762;48.128;11.376;2024-03-08T06:09:28;-3276.30;87.70
9448;DHT22;4762;48.128;11.376;2024-03-08T06:11:30;-3276.00;87.60
9448;DHT22;4762;48.128;11.376;2024-03-08T06:13:32;-3276.10;87.60
9448;DHT22;4762;48.128;11.376;2024-03-08T06:15:35;-3276.20;87.60
9448;DHT22;4762;48.128;11.376;2024-03-08T06:17:37;-3276.20;87.70
9448;DHT22;4762;48.128;11.376;2024-03-08T06:19:39;-3276.20;87.30
9448;DHT22;4762;48.128;11.376;2024-03-08T06:21:42;-3276.30;87.30
9448;DHT22;4762;48.128;11.376;2024-03-08T06:23:44;-3276.40;87.20
9448;DHT22;4762;48.128;11.376;2024-03-08T06:25:47;-3276.50;86.60
9448;DHT22;4762;48.128;11.376;2024-03-08T06:27:49;-3276.50;86.90
9448;DHT22;4762;48.128;11.376;2024-03-08T06:29:51;-3276.20;87.00
9448;DHT22;4762;48.128;11.376;2024-03-08T06:31:53;-3276.40;87.00
9448;DHT22;4762;48.128;11.376;2024-03-08T06:33:56;-3276.40;87.00
9448;DHT22;4762;48.128;11.376;2024-03-08T06:35:58;-3276.60;87.00
9448;DHT22;4762;48.128;11.376;2024-03-08T06:38:00;-3276.50;86.60
9448;DHT22;4762;48.128;11.376;2024-03-08T06:40:03;0.00;86.30
9448;DHT22;4762;48.128;11.376;2024-03-08T06:42:05;-3276.40;86.20
9448;DHT22;4762;48.128;11.376;2024-03-08T06:44:07;-3276.40;86.40
9448;DHT22;4762;48.128;11.376;2024-03-08T06:46:09;-3276.40;86.70
9448;DHT22;4762;48.128;11.376;2024-03-08T06:48:12;-3276.50;86.60
9448;DHT22;4762;48.128;11.376;2024-03-08T06:50:14;-3276.30;86.90
9448;DHT22;4762;48.128;11.376;2024-03-08T06:52:16;-3276.50;87.00
9448;DHT22;4762;48.128;11.376;2024-03-08T06:54:19;-3276.50;87.00
9448;DHT22;4762;48.128;11.376;2024-03-08T06:56:21;-3276.60;86.90
9448;DHT22;4762;48.128;11.376;2024-03-08T06:58:23;0.00;86.60
9448;DHT22;4762;48.128;11.376;2024-03-08T07:00:25;-3276.60;86.60
9448;DHT22;4762;48.128;11.376;2024-03-08T07:02:28;0.00;86.90
9448;DHT22;4762;48.128;11.376;2024-03-08T07:04:30;-3276.70;86.40
9448;DHT22;4762;48.128;11.376;2024-03-08T07:06:33;-3276.60;86.50
9448;DHT22;4762;48.128;11.376;2024-03-08T07:08:36;-3276.50;86.50
9448;DHT22;4762;48.128;11.376;2024-03-08T07:10:39;-3276.70;86.30
9448;DHT22;4762;48.128;11.376;2024-03-08T07:12:42;0.00;85.70
9448;DHT22;4762;48.128;11.376;2024-03-08T07:14:44;0.00;86.00
9448;DHT22;4762;48.128;11.376;2024-03-08T07:16:47;0.00;85.80
9448;DHT22;4762;48.128;11.376;2024-03-08T07:18:50;0.00;85.60
9448;DHT22;4762;48.128;11.376;2024-03-08T07:20:52;-3276.70;85.50
9448;DHT22;4762;48.128;11.376;2024-03-08T07:22:54;0.00;85.90
9448;DHT22;4762;48.128;11.376;2024-03-08T07:24:57;0.00;85.60
9448;DHT22;4762;48.128;11.376;2024-03-08T07:27:15;0.00;85.40
9448;DHT22;4762;48.128;11.376;2024-03-08T07:29:17;0.20;85.80
9448;DHT22;4762;48.128;11.376;2024-03-08T07:31:19;0.40;85.90
9448;DHT22;4762;48.128;11.376;2024-03-08T07:33:38;0.50;85.00
9448;DHT22;4762;48.128;11.376;2024-03-08T07:35:41;0.60;84.20
9448;DHT22;4762;48.128;11.376;2024-03-08T07:37:43;0.70;84.80
9448;DHT22;4762;48.128;11.376;2024-03-08T07:39:45;0.50;83.60
9448;DHT22;4762;48.128;11.376;2024-03-08T07:41:47;0.80;84.30
9448;DHT22;4762;48.128;11.376;2024-03-08T07:43:49;0.80;84.30
9448;DHT22;4762;48.128;11.376;2024-03-08T07:45:52;0.90;84.30
9448;DHT22;4762;48.128;11.376;2024-03-08T07:47:54;0.80;83.70
9448;DHT22;4762;48.128;11.376;2024-03-08T07:49:56;0.80;84.40
9448;DHT22;4762;48.128;11.376;2024-03-08T07:51:59;1.00;84.30
9448;DHT22;4762;48.128;11.376;2024-03-08T07:54:01;0.70;83.80
9448;DHT22;4762;48.128;11.376;2024-03-08T07:56:04;0.80;83.80
9448;DHT22;4762;48.128;11.376;2024-03-08T07:58:07;1.10;83.80
9448;DHT22;4762;48.128;11.376;2024-03-08T08:00:10;0.90;84.70
9448;DHT22;4762;48.128;11.376;2024-03-08T08:02:13;1.10;84.00
9448;DHT22;4762;48.128;11.376;2024-03-08T08:04:15;1.10;84.40
9448;DHT22;4762;48.128;11.376;2024-03-08T08:06:17;1.10;82.90
9448;DHT22;4762;48.128;11.376;2024-03-08T08:08:19;1.00;83.70
9448;DHT22;4762;48.128;11.376;2024-03-08T08:10:22;1.20;83.20
9448;DHT22;4762;48.128;11.376;2024-03-08T08:12:24;1.00;82.50
9448;DHT22;4762;48.128;11.376;2024-03-08T08:14:27;1.10;83.00
9448;DHT22;4762;48.128;11.376;2024-03-08T08:16:30;1.40;82.90
9448;DHT22;4762;48.128;11.376;2024-03-08T08:18:33;1.40;82.90
9448;DHT22;4762;48.128;11.376;2024-03-08T08:20:35;1.50;82.00
9448;DHT22;4762;48.128;11.376;2024-03-08T08:22:38;1.40;81.90
9448;DHT22;4762;48.128;11.376;2024-03-08T08:24:40;1.60;81.00
9448;DHT22;4762;48.128;11.376;2024-03-08T08:26:42;1.70;81.50
9448;DHT22;4762;48.128;11.376;2024-03-08T08:28:45;2.10;80.90
9448;DHT22;4762;48.128;11.376;2024-03-08T08:33:18;2.30;79.60
9448;DHT22;4762;48.128;11.376;2024-03-08T08:35:21;1.90;79.40
9448;DHT22;4762;48.128;11.376;2024-03-08T08:37:23;2.10;79.40
9448;DHT22;4762;48.128;11.376;2024-03-08T08:39:25;2.10;79.00
9448;DHT22;4762;48.128;11.376;2024-03-08T08:41:27;2.10;78.90
9448;DHT22;4762;48.128;11.376;2024-03-08T08:43:30;2.10;79.10
9448;DHT22;4762;48.128;11.376;2024-03-08T08:45:32;2.30;78.90
9448;DHT22;4762;48.128;11.376;2024-03-08T08:47:35;2.60;77.40
9448;DHT22;4762;48.128;11.376;2024-03-08T08:49:36;2.80;76.60
9448;DHT22;4762;48.128;11.376;2024-03-08T08:51:38;2.90;76.80
9448;DHT22;4762;48.128;11.376;2024-03-08T08:53:41;3.10;76.20
9448;DHT22;4762;48.128;11.376;2024-03-08T08:55:43;3.20;75.40
9448;DHT22;4762;48.128;11.376;2024-03-08T08:57:45;3.20;75.50
9448;DHT22;4762;48.128;11.376;2024-03-08T08:59:47;3.40;76.10
9448;DHT22;4762;48.128;11.376;2024-03-08T09:01:49;3.60;72.60
9448;DHT22;4762;48.128;11.376;2024-03-08T09:03:52;3.80;72.20
9448;DHT22;4762;48.128;11.376;2024-03-08T09:05:54;3.50;73.00
9448;DHT22;4762;48.128;11.376;2024-03-08T09:07:56;3.40;73.10
9448;DHT22;4762;48.128;11.376;2024-03-08T09:09:58;3.60;74.60
9448;DHT22;4762;48.128;11.376;2024-03-08T09:12:01;3.80;71.40
9448;DHT22;4762;48.128;11.376;2024-03-08T09:14:04;4.30;70.80
9448;DHT22;4762;48.128;11.376;2024-03-08T09:16:06;5.10;67.20
9448;DHT22;4762;48.128;11.376;2024-03-08T09:18:08;4.60;67.50
9448;DHT22;4762;48.128;11.376;2024-03-08T09:20:10;4.60;67.50
9448;DHT22;4762;48.128;11.376;2024-03-08T09:22:15;5.20;67.40
9448;DHT22;4762;48.128;11.376;2024-03-08T09:24:17;5.80;65.50
9448;DHT22;4762;48.128;11.376;2024-03-08T09:26:20;5.90;64.00
9448;DHT22;4762;48.128;11.376;2024-03-08T09:28:26;6.30;64.10
9448;DHT22;4762;48.128;11.376;2024-03-08T09:30:29;6.30;64.30
9448;DHT22;4762;48.128;11.376;2024-03-08T09:32:31;6.20;61.80
9448;DHT22;4762;48.128;11.376;2024-03-08T09:34:33;6.20;63.80
9448;DHT22;4762;48.128;11.376;2024-03-08T09:36:37;6.90;61.40
9448;DHT22;4762;48.128;11.376;2024-03-08T09:38:49;6.10;62.00
9448;DHT22;4762;48.128;11.376;2024-03-08T09:40:51;6.10;64.20
9448;DHT22;4762;48.128;11.376;2024-03-08T09:42:54;5.70;64.30
9448;DHT22;4762;48.128;11.376;2024-03-08T09:44:56;6.60;62.80
9448;DHT22;4762;48.128;11.376;2024-03-08T09:46:59;6.30;61.30
9448;DHT22;4762;48.128;11.376;2024-03-08T09:49:01;6.80;61.00
9448;DHT22;4762;48.128;11.376;2024-03-08T09:51:04;7.30;58.50
9448;DHT22;4762;48.128;11.376;2024-03-08T09:53:06;7.80;60.80
9448;DHT22;4762;48.128;11.376;2024-03-08T09:55:10;7.60;59.00
9448;DHT22;4762;48.128;11.376;2024-03-08T09:57:14;7.50;59.40
9448;DHT22;4762;48.128;11.376;2024-03-08T09:59:16;8.10;56.80
9448;DHT22;4762;48.128;11.376;2024-03-08T10:01:23;7.90;58.10
9448;DHT22;4762;48.128;11.376;2024-03-08T10:03:25;8.50;56.80
9448;DHT22;4762;48.128;11.376;2024-03-08T10:05:28;8.80;55.60
9448;DHT22;4762;48.128;11.376;2024-03-08T10:07:30;8.40;55.30
9448;DHT22;4762;48.128;11.376;2024-03-08T10:09:33;8.70;54.80
9448;DHT22;4762;48.128;11.376;2024-03-08T10:11:35;8.50;55.80
9448;DHT22;4762;48.128;11.376;2024-03-08T10:13:38;9.10;53.80
9448;DHT22;4762;48.128;11.376;2024-03-08T10:15:41;9.50;53.70
9448;DHT22;4762;48.128;11.376;2024-03-08T10:17:44;9.60;53.80
9448;DHT22;4762;48.128;11.376;2024-03-08T10:19:50;9.40;52.40
9448;DHT22;4762;48.128;11.376;2024-03-08T10:21:52;8.90;52.50
9448;DHT22;4762;48.128;11.376;2024-03-08T10:23:57;9.40;53.80
9448;DHT22;4762;48.128;11.376;2024-03-08T10:26:10;9.00;54.10
9448;DHT22;4762;48.128;11.376;2024-03-08T10:28:13;9.40;52.80
9448;DHT22;4762;48.128;11.376;2024-03-08T10:30:16;10.10;51.40
9448;DHT22;4762;48.128;11.376;2024-03-08T10:32:18;9.80;53.30
9448;DHT22;4762;48.128;11.376;2024-03-08T10:34:20;10.10;51.30
9448;DHT22;4762;48.128;11.376;2024-03-08T10:36:22;10.90;49.60
9448;DHT22;4762;48.128;11.376;2024-03-08T10:38:25;10.50;50.70
9448;DHT22;4762;48.128;11.376;2024-03-08T10:40:27;10.70;49.80
9448;DHT22;4762;48.128;11.376;2024-03-08T10:42:31;10.80;49.50
9448;DHT22;4762;48.128;11.376;2024-03-08T10:44:49;10.60;49.80
9448;DHT22;4762;48.128;11.376;2024-03-08T10:46:59;10.70;50.00
9448;DHT22;4762;48.128;11.376;2024-03-08T10:51:24;10.70;51.00
9448;DHT22;4762;48.128;11.376;2024-03-08T10:53:27;11.00;50.70
9448;DHT22;4762;48.128;11.376;2024-03-08T10:55:39;10.50;51.20
9448;DHT22;4762;48.128;11.376;2024-03-08T10:57:48;11.00;50.50
9448;DHT22;4762;48.128;11.376;2024-03-08T10:59:51;10.70;49.50
9448;DHT22;4762;48.128;11.376;2024-03-08T11:01:55;11.50;49.70
9448;DHT22;4762;48.128;11.376;2024-03-08T11:03:58;11.50;46.80
9448;DHT22;4762;48.128;11.376;2024-03-08T11:06:04;11.00;48.70
9448;DHT22;4762;48.128;11.376;2024-03-08T11:08:18;11.20;49.30
9448;DHT22;4762;48.128;11.376;2024-03-08T11:10:20;11.50;47.20
9448;DHT22;4762;48.128;11.376;2024-03-08T11:12:26;11.20;48.50
9448;DHT22;4762;48.128;11.376;2024-03-08T11:16:43;11.80;47.50
9448;DHT22;4762;48.128;11.376;2024-03-08T11:18:53;12.00;46.80
9448;DHT22;4762;48.128;11.376;2024-03-08T11:20:55;11.60;47.60
9448;DHT22;4762;48.128;11.376;2024-03-08T11:23:00;12.40;46.40
9448;DHT22;4762;48.128;11.376;2024-03-08T11:25:03;11.70;47.00
9448;DHT22;4762;48.128;11.376;2024-03-08T11:27:05;12.80;45.50
9448;DHT22;4762;48.128;11.376;2024-03-08T11:31:23;12.80;45.00
9448;DHT22;4762;48.128;11.376;2024-03-08T11:33:28;13.10;44.10
9448;DHT22;4762;48.128;11.376;2024-03-08T11:35:30;13.30;44.00
9448;DHT22;4762;48.128;11.376;2024-03-08T11:37:33;12.90;46.00
9448;DHT22;4762;48.128;11.376;2024-03-08T11:39:46;13.20;44.70
9448;DHT22;4762;48.128;11.376;2024-03-08T11:41:49;12.70;44.10
9448;DHT22;4762;48.128;11.376;2024-03-08T11:46:07;13.40;44.30
9448;DHT22;4762;48.128;11.376;2024-03-08T11:48:15;13.40;43.90
9448;DHT22;4762;48.128;11.376;2024-03-08T11:50:19;12.70;44.10
9448;DHT22;4762;48.128;11.376;2024-03-08T11:52:23;13.00;45.40
9448;DHT22;4762;48.128;11.376;2024-03-08T11:54:26;13.10;44.20
9448;DHT22;4762;48.128;11.376;2024-03-08T11:56:28;12.90;44.10
9448;DHT22;4762;48.128;11.376;2024-03-08T11:58:31;12.90;43.60
9448;DHT22;4762;48.128;11.376;2024-03-08T12:00:33;12.80;44.30
9448;DHT22;4762;48.128;11.376;2024-03-08T12:02:37;13.00;43.40
9448;DHT22;4762;48.128;11.376;2024-03-08T12:04:39;13.90;42.90
9448;DHT22;4762;48.128;11.376;2024-03-08T12:06:42;13.40;43.10
9448;DHT22;4762;48.128;11.376;2024-03-08T12:08:45;14.10;41.80
9448;DHT22;4762;48.128;11.376;2024-03-08T12:10:46;13.20;42.80
9448;DHT22;4762;48.128;11.376;2024-03-08T12:12:49;13.30;43.20
9448;DHT22;4762;48.128;11.376;2024-03-08T12:14:51;13.80;41.50
9448;DHT22;4762;48.128;11.376;2024-03-08T12:16:54;13.40;43.00
9448;DHT22;4762;48.128;11.376;2024-03-08T12:18:57;13.20;43.40
9448;DHT22;4762;48.128;11.376;2024-03-08T12:21:06;13.70;42.60
9448;DHT22;4762;48.128;11.376;2024-03-08T12:23:13;13.60;43.10
9448;DHT22;4762;48.128;11.376;2024-03-08T12:25:11;13.70;41.30
9448;DHT22;4762;48.128;11.376;2024-03-08T12:27:17;13.50;42.70
9448;DHT22;4762;48.128;11.376;2024-03-08T12:29:22;13.60;42.40
9448;DHT22;4762;48.128;11.376;2024-03-08T12:31:24;13.90;41.40
9448;DHT22;4762;48.128;11.376;2024-03-08T12:33:27;14.20;40.60
9448;DHT22;4762;48.128;11.376;2024-03-08T12:35:29;14.40;41.20
9448;DHT22;4762;48.128;11.376;2024-03-08T12:37:31;14.30;40.80
9448;DHT22;4762;48.128;11.376;2024-03-08T12:39:34;14.40;40.30
9448;DHT22;4762;48.128;11.376;2024-03-08T12:41:39;14.30;41.60
9448;DHT22;4762;48.128;11.376;2024-03-08T12:43:38;14.10;41.80
9448;DHT22;4762;48.128;11.376;2024-03-08T12:45:40;13.70;42.10
9448;DHT22;4762;48.128;11.376;2024-03-08T12:47:44;14.60;41.80
9448;DHT22;4762;48.128;11.376;2024-03-08T12:49:47;14.30;41.00
9448;DHT22;4762;48.128;11.376;2024-03-08T12:51:50;14.80;40.50
9448;DHT22;4762;48.128;11.376;2024-03-08T12:53:55;14.70;39.90
9448;DHT22;4762;48.128;11.376;2024-03-08T12:55:58;14.80;40.30
9448;DHT22;4762;48.128;11.376;2024-03-08T12:58:03;14.50;40.00
9448;DHT22;4762;48.128;11.376;2024-03-08T13:00:05;15.00;40.20
9448;DHT22;4762;48.128;11.376;2024-03-08T13:02:08;15.40;39.50
9448;DHT22;4762;48.128;11.376;2024-03-08T13:04:10;14.90;39.30
9448;DHT22;4762;48.128;11.376;2024-03-08T13:06:12;14.50;40.40